Time;durP1;ratioP1;P1;durP2;ratioP2;P2;SDS_P1;SDS_P2;PMS_P1;PMS_P2;Temp;Humidity;BMP_temperature;BMP_pressure;BME280_temperature;BME280_humidity;BME280_pressure;Samples;Min_cycle;Max_cycle;Signal;HPM_P1;HPM_P2
2022/06/06 00:02:18;;;;;;;62.80;33.47;;;16.30;99.90;;;;;;5035484;28;20112;-77
2022/06/06 00:04:43;;;;;;;61.85;34.30;;;16.20;99.90;;;;;;5034949;28;20045;-77
2022/06/06 00:07:09;;;;;;;64.55;34.13;;;16.20;99.90;;;;;;5035450;28;20021;-77
2022/06/06 00:09:34;;;;;;;65.20;35.25;;;16.10;99.90;;;;;;5035116;28;20024;-77
2022/06/06 00:12:02;;;;;;;64.28;36.53;;;16.10;99.90;;;;;;5034973;28;20035;-77
2022/06/06 00:14:28;;;;;;;65.32;35.25;;;16.10;99.90;;;;;;5034930;28;20041;-78
2022/06/06 00:16:54;;;;;;;59.90;33.55;;;16.10;99.90;;;;;;5034898;28;20459;-77
2022/06/06 00:19:20;;;;;;;61.90;34.05;;;16.10;99.90;;;;;;5034846;28;20125;-77
2022/06/06 00:21:46;;;;;;;63.80;35.47;;;16.00;99.90;;;;;;5035087;28;20051;-77
2022/06/06 00:24:12;;;;;;;56.85;33.42;;;16.00;99.90;;;;;;5034971;28;20026;-77
2022/06/06 00:26:38;;;;;;;53.67;32.42;;;16.00;99.90;;;;;;5035033;28;20017;-77
2022/06/06 00:29:05;;;;;;;54.85;31.75;;;15.90;99.90;;;;;;5034473;28;20036;-77
2022/06/06 00:37:24;;;;;;;51.05;29.63;;;16.00;99.90;;;;;;4993165;28;20019;-77
2022/06/06 00:39:51;;;;;;;49.20;30.07;;;16.00;99.90;;;;;;5028047;28;20420;-77
2022/06/06 00:42:22;;;;;;;45.92;28.02;;;16.00;99.90;;;;;;5034561;28;20030;-77
2022/06/06 00:45:08;;;;;;;42.88;26.23;;;16.10;99.90;;;;;;5034445;28;20022;-77
2022/06/06 00:47:38;;;;;;;45.08;26.23;;;16.00;99.90;;;;;;5034243;28;20508;-77
2022/06/06 00:50:29;;;;;;;40.10;23.92;;;16.00;99.90;;;;;;5034679;28;20416;-77
2022/06/06 00:52:56;;;;;;;38.35;23.75;;;16.00;99.90;;;;;;5026997;28;20037;-78
2022/06/06 00:55:28;;;;;;;40.72;24.00;;;16.00;99.90;;;;;;5033667;28;20069;-78
2022/06/06 00:58:05;;;;;;;40.03;23.23;;;15.90;99.90;;;;;;5033944;28;20056;-78
2022/06/06 01:00:31;;;;;;;38.60;23.48;;;16.00;99.90;;;;;;5034533;28;20105;-77
2022/06/06 01:03:02;;;;;;;42.60;23.00;;;16.00;99.90;;;;;;5034027;28;20021;-77
2022/06/06 01:05:28;;;;;;;35.10;21.42;;;16.00;99.90;;;;;;5034074;28;20084;-77
2022/06/06 01:07:54;;;;;;;36.42;20.77;;;16.10;99.90;;;;;;5033974;28;20021;-76
2022/06/06 01:10:21;;;;;;;36.05;21.15;;;16.10;99.90;;;;;;5034255;28;20028;-77
2022/06/06 01:12:50;;;;;;;39.63;22.20;;;16.10;99.90;;;;;;5033586;28;20477;-77
2022/06/06 01:15:19;;;;;;;35.88;20.55;;;16.10;99.90;;;;;;5033832;28;20037;-77
2022/06/06 01:18:07;;;;;;;38.33;21.08;;;16.10;99.90;;;;;;5034031;28;20377;-77
2022/06/06 01:20:47;;;;;;;38.63;21.35;;;16.10;99.90;;;;;;5033859;28;20100;-77
2022/06/06 01:23:35;;;;;;;38.25;21.45;;;16.10;99.90;;;;;;5033617;28;20018;-77
2022/06/06 01:26:19;;;;;;;35.90;21.20;;;16.20;99.90;;;;;;5033753;28;20112;-77
2022/06/06 01:28:59;;;;;;;38.15;21.13;;;16.20;99.90;;;;;;5033764;28;20024;-77
2022/06/06 01:31:34;;;;;;;39.22;21.92;;;16.10;99.90;;;;;;5033516;28;20113;-78
2022/06/06 01:34:02;;;;;;;34.03;20.20;;;16.10;99.90;;;;;;5033520;28;20041;-78
2022/06/06 01:36:31;;;;;;;35.50;20.58;;;16.10;99.90;;;;;;5033847;28;20044;-77
2022/06/06 01:38:58;;;;;;;32.33;19.70;;;16.10;99.90;;;;;;5033496;28;20511;-77
2022/06/06 01:41:47;;;;;;;32.67;19.73;;;16.10;99.90;;;;;;5033780;28;20141;-77
2022/06/06 01:44:20;;;;;;;29.15;17.95;;;16.00;99.90;;;;;;5033821;28;20036;-77
2022/06/06 01:46:47;;;;;;;35.40;20.52;;;16.10;99.90;;;;;;5033761;28;20025;-78
2022/06/06 01:49:15;;;;;;;32.58;19.67;;;16.00;99.90;;;;;;5033077;28;20477;-78
2022/06/06 01:51:41;;;;;;;35.67;20.45;;;16.00;99.90;;;;;;5033448;28;20108;-77
2022/06/06 01:54:07;;;;;;;34.00;19.10;;;16.00;99.90;;;;;;5033246;28;20168;-77
2022/06/06 01:56:40;;;;;;;31.33;19.98;;;15.90;99.90;;;;;;5032999;28;20433;-77
2022/06/06 01:59:05;;;;;;;33.42;19.55;;;16.00;99.90;;;;;;5033606;28;20021;-78
2022/06/06 02:01:31;;;;;;;33.72;19.83;;;16.00;99.90;;;;;;5033433;28;20628;-77
2022/06/06 02:03:57;;;;;;;35.28;20.30;;;15.90;99.90;;;;;;5033034;28;20543;-77
2022/06/06 02:06:23;;;;;;;34.60;20.15;;;15.90;99.90;;;;;;5033050;28;20029;-77
2022/06/06 02:08:50;;;;;;;30.50;18.77;;;16.00;99.90;;;;;;5032762;28;20090;-77
2022/06/06 02:11:18;;;;;;;31.10;19.85;;;16.00;99.90;;;;;;5033215;28;20424;-77
2022/06/06 02:13:44;;;;;;;32.70;19.67;;;15.90;99.90;;;;;;5033386;28;20072;-78
2022/06/06 02:16:09;;;;;;;37.10;21.20;;;15.90;99.90;;;;;;5033339;28;20034;-78
2022/06/06 02:18:36;;;;;;;33.80;20.00;;;16.00;99.90;;;;;;5033043;28;20017;-77
2022/06/06 02:21:03;;;;;;;31.45;19.15;;;15.90;99.90;;;;;;5032810;28;20033;-77
2022/06/06 02:23:29;;;;;;;34.17;21.15;;;16.00;99.90;;;;;;5033035;28;20358;-77
2022/06/06 02:25:55;;;;;;;31.17;18.80;;;16.00;99.90;;;;;;5032912;28;20539;-77
2022/06/06 02:28:21;;;;;;;31.65;19.10;;;16.10;99.90;;;;;;5033171;28;20029;-77
2022/06/06 02:30:47;;;;;;;33.13;20.45;;;16.10;99.90;;;;;;5033149;28;20376;-77
2022/06/06 02:33:12;;;;;;;34.47;20.35;;;16.10;99.90;;;;;;5032801;28;20021;-77
2022/06/06 02:35:41;;;;;;;37.67;20.00;;;16.10;99.90;;;;;;5032930;28;20077;-77
2022/06/06 02:38:08;;;;;;;35.95;20.40;;;16.10;99.90;;;;;;5033249;28;20030;-77
2022/06/06 02:40:34;;;;;;;40.30;23.35;;;16.10;99.90;;;;;;5032496;28;20159;-77
2022/06/06 02:43:00;;;;;;;42.58;23.13;;;16.20;99.90;;;;;;5032914;28;20052;-77
2022/06/06 02:45:26;;;;;;;43.03;25.58;;;16.20;99.90;;;;;;5033116;28;20036;-77
2022/06/06 02:47:55;;;;;;;46.42;25.27;;;16.20;99.90;;;;;;5033253;28;20032;-77
2022/06/06 02:50:25;;;;;;;48.60;26.70;;;16.20;99.90;;;;;;5032724;28;20017;-77
2022/06/06 02:52:51;;;;;;;50.60;26.85;;;16.20;99.90;;;;;;5032750;28;20121;-77
2022/06/06 02:55:17;;;;;;;44.53;24.85;;;16.20;99.90;;;;;;5032661;28;20037;-77
2022/06/06 02:57:45;;;;;;;48.83;27.15;;;16.20;99.90;;;;;;5033027;28;20079;-77
2022/06/06 03:00:19;;;;;;;40.95;25.48;;;16.20;99.90;;;;;;5032791;28;20033;-77
2022/06/06 03:02:45;;;;;;;43.33;26.88;;;16.20;99.90;;;;;;5032648;28;20029;-78
2022/06/06 03:05:11;;;;;;;50.53;25.40;;;16.20;99.90;;;;;;5032164;28;20412;-77
2022/06/06 03:07:56;;;;;;;46.75;26.35;;;16.20;99.90;;;;;;5032529;28;20105;-77
2022/06/06 03:10:51;;;;;;;45.40;26.92;;;16.30;99.90;;;;;;5032557;28;20025;-77
2022/06/06 03:13:35;;;;;;;53.95;27.65;;;16.20;99.90;;;;;;5011479;28;20060;-77
2022/06/06 03:21:53;;;;;;;43.58;25.70;;;16.30;99.90;;;;;;5036058;28;20167;-78
2022/06/06 03:24:19;;;;;;;43.00;25.30;;;16.30;99.90;;;;;;5035350;28;20049;-77
2022/06/06 03:27:11;;;;;;;52.42;26.50;;;16.40;99.90;;;;;;5036085;28;20097;-77
2022/06/06 03:30:05;;;;;;;43.65;25.15;;;16.30;99.90;;;;;;5036132;28;20026;-77
2022/06/06 03:33:11;;;;;;;43.38;25.13;;;16.40;99.90;;;;;;5035708;28;20163;-77
2022/06/06 03:35:49;;;;;;;46.72;26.02;;;16.40;99.90;;;;;;5035785;28;20038;-77
2022/06/06 03:38:44;;;;;;;43.08;26.02;;;16.40;99.90;;;;;;5035567;28;20457;-77
2022/06/06 03:41:25;;;;;;;48.40;27.58;;;16.40;99.90;;;;;;5036068;28;20037;-77
2022/06/06 03:44:09;;;;;;;49.33;26.15;;;16.50;99.90;;;;;;5035772;28;20080;-77
2022/06/06 03:46:59;;;;;;;46.17;26.60;;;16.40;99.90;;;;;;5035469;28;20022;-77
2022/06/06 03:49:49;;;;;;;48.75;27.13;;;16.50;99.90;;;;;;5036453;28;20377;-77
2022/06/06 03:52:24;;;;;;;55.95;28.20;;;16.40;99.90;;;;;;5035501;28;20385;-77
2022/06/06 03:55:24;;;;;;;49.47;25.60;;;16.50;99.90;;;;;;5035175;28;20478;-77
2022/06/06 03:57:52;;;;;;;46.17;24.95;;;16.40;99.90;;;;;;5035660;28;20451;-77
2022/06/06 04:00:18;;;;;;;44.72;24.58;;;16.40;99.90;;;;;;5035365;28;20024;-77
2022/06/06 04:02:45;;;;;;;42.60;24.42;;;16.40;99.90;;;;;;5035301;28;20049;-77
2022/06/06 04:05:15;;;;;;;40.97;23.45;;;16.40;99.90;;;;;;5035099;28;20061;-77
2022/06/06 04:07:41;;;;;;;40.53;23.20;;;16.40;99.90;;;;;;5035172;28;20469;-77
2022/06/06 04:10:08;;;;;;;41.50;23.15;;;16.50;99.90;;;;;;5035143;28;20038;-77
2022/06/06 04:12:46;;;;;;;41.40;23.17;;;16.40;99.90;;;;;;5034815;28;20041;-77
2022/06/06 04:15:51;;;;;;;36.90;22.27;;;16.50;99.90;;;;;;5035275;28;20045;-77
2022/06/06 04:18:41;;;;;;;39.38;22.98;;;16.50;99.90;;;;;;5012099;28;20029;-77
2022/06/06 04:21:09;;;;;;;42.85;25.08;;;16.50;99.90;;;;;;5035277;28;20052;-77
2022/06/06 04:23:41;;;;;;;42.00;24.55;;;16.40;99.90;;;;;;5035025;28;20045;-77
2022/06/06 04:26:36;;;;;;;43.65;26.08;;;16.40;99.90;;;;;;5034985;28;20028;-78
2022/06/06 04:29:05;;;;;;;45.72;27.17;;;16.40;99.90;;;;;;5034746;28;20026;-77
2022/06/06 04:31:54;;;;;;;50.80;28.90;;;16.30;99.90;;;;;;5034472;28;20026;-77
2022/06/06 04:34:41;;;;;;;61.03;31.48;;;16.30;99.90;;;;;;5034697;28;20072;-77
2022/06/06 04:37:15;;;;;;;51.97;30.42;;;16.20;99.90;;;;;;5034982;28;20025;-77
2022/06/06 04:40:02;;;;;;;63.72;35.67;;;16.20;99.90;;;;;;5034777;28;20551;-77
2022/06/06 04:43:03;;;;;;;59.30;34.28;;;16.20;99.90;;;;;;5034998;28;20405;-77
2022/06/06 04:45:56;;;;;;;60.15;34.38;;;16.10;99.90;;;;;;4992863;28;20394;-77
2022/06/06 04:48:24;;;;;;;62.40;35.15;;;16.10;99.90;;;;;;5033566;28;20562;-77
2022/06/06 04:50:51;;;;;;;60.90;34.47;;;16.20;99.90;;;;;;5034110;28;20030;-77
2022/06/06 04:53:20;;;;;;;54.22;32.35;;;16.20;99.90;;;;;;5034576;28;20032;-77
2022/06/06 04:55:49;;;;;;;52.90;31.13;;;16.10;99.90;;;;;;5034159;28;20028;-77
2022/06/06 04:58:17;;;;;;;43.97;27.65;;;16.20;99.90;;;;;;5034523;28;20100;-77
2022/06/06 05:00:44;;;;;;;42.22;27.77;;;16.10;99.90;;;;;;5034464;28;20167;-77
2022/06/06 05:03:10;;;;;;;45.78;27.77;;;16.10;99.90;;;;;;5033905;28;20033;-77
2022/06/06 05:06:13;;;;;;;43.92;27.25;;;16.10;99.90;;;;;;5033952;28;20136;-77
2022/06/06 05:09:16;;;;;;;44.35;27.73;;;16.00;99.90;;;;;;5034290;28;20025;-77
2022/06/06 05:12:09;;;;;;;44.95;27.48;;;16.00;99.90;;;;;;5034116;28;20389;-77
2022/06/06 05:14:58;;;;;;;43.33;26.40;;;15.90;99.90;;;;;;5033844;28;20064;-77
2022/06/06 05:17:49;;;;;;;40.53;26.77;;;15.90;99.90;;;;;;5033752;28;20033;-77
2022/06/06 05:20:33;;;;;;;43.35;25.50;;;15.80;99.90;;;;;;5033753;28;20490;-77
2022/06/06 05:23:36;;;;;;;38.75;25.50;;;15.90;99.90;;;;;;5033675;28;20018;-77
2022/06/06 05:26:17;;;;;;;40.13;26.52;;;15.80;99.90;;;;;;5033527;28;20037;-77
2022/06/06 05:28:51;;;;;;;39.28;25.80;;;15.80;99.90;;;;;;5033573;28;20025;-76
2022/06/06 05:31:43;;;;;;;39.55;26.15;;;15.90;99.90;;;;;;5033530;28;20100;-76
2022/06/06 05:34:33;;;;;;;33.72;23.83;;;15.80;99.90;;;;;;5033666;28;20104;-77
2022/06/06 05:37:15;;;;;;;35.50;23.95;;;15.90;99.90;;;;;;5033666;28;20151;-76
2022/06/06 05:40:05;;;;;;;35.40;23.20;;;15.90;99.90;;;;;;5033717;28;20072;-77
2022/06/06 05:42:37;;;;;;;32.28;21.60;;;15.90;99.90;;;;;;5032942;28;20029;-76
2022/06/06 05:45:17;;;;;;;29.38;20.42;;;15.90;99.90;;;;;;5033457;28;20461;-77
2022/06/06 05:47:57;;;;;;;29.88;20.63;;;15.90;99.90;;;;;;5033558;28;20030;-77
2022/06/06 05:50:50;;;;;;;28.15;20.42;;;16.00;99.90;;;;;;5033535;28;20390;-77
2022/06/06 05:53:21;;;;;;;;;;;15.90;99.90;;;;;;5033682;28;20480;-77
2022/06/06 05:56:35;;;;;;;23.42;15.13;;;15.90;99.90;;;;;;5033400;28;19909;-78
2022/06/06 05:59:09;;;;;;;22.02;15.23;;;15.90;99.90;;;;;;5024115;28;20048;-77
2022/06/06 06:01:57;;;;;;;22.02;14.40;;;15.80;99.90;;;;;;5033269;28;20057;-77
2022/06/06 06:04:35;;;;;;;19.60;13.50;;;15.80;99.90;;;;;;5032990;28;20103;-77
2022/06/06 06:07:06;;;;;;;17.83;13.68;;;15.90;99.90;;;;;;5033493;28;20029;-77
2022/06/06 06:09:58;;;;;;;17.95;12.98;;;15.90;99.90;;;;;;5033398;28;20029;-77
2022/06/06 06:12:47;;;;;;;18.08;12.27;;;16.00;99.90;;;;;;5033250;28;20132;-77
2022/06/06 06:15:28;;;;;;;15.52;11.45;;;16.00;99.90;;;;;;5033109;28;20033;-77
2022/06/06 06:17:54;;;;;;;14.57;10.25;;;16.10;99.90;;;;;;5033129;28;20052;-77
2022/06/06 06:20:30;;;;;;;18.85;10.70;;;16.10;99.90;;;;;;5033120;28;20128;-77
2022/06/06 06:23:02;;;;;;;15.68;9.77;;;16.10;99.90;;;;;;5033176;28;20022;-77
2022/06/06 06:25:31;;;;;;;14.63;10.75;;;16.20;99.90;;;;;;5033287;28;20084;-77
2022/06/06 06:28:03;;;;;;;15.18;10.10;;;16.10;99.90;;;;;;5033318;28;20033;-77
2022/06/06 06:30:37;;;;;;;17.45;10.75;;;16.10;99.90;;;;;;5032918;28;20100;-77
2022/06/06 06:33:15;;;;;;;18.27;10.35;;;16.10;99.90;;;;;;5033293;28;20034;-77
2022/06/06 06:35:51;;;;;;;13.30;8.50;;;16.10;99.90;;;;;;5032979;28;20069;-77
2022/06/06 06:39:00;;;;;;;12.55;7.40;;;16.10;99.90;;;;;;5032909;28;20021;-77
2022/06/06 06:41:39;;;;;;;13.68;8.80;;;16.10;99.90;;;;;;5032931;28;20487;-77
2022/06/06 06:44:08;;;;;;;12.07;8.30;;;16.10;99.90;;;;;;5033064;28;20033;-77
2022/06/06 06:46:54;;;;;;;11.38;8.55;;;16.10;99.90;;;;;;5033035;28;20040;-77
2022/06/06 06:49:37;;;;;;;11.93;8.07;;;16.20;99.90;;;;;;5032841;28;20034;-77
2022/06/06 06:52:34;;;;;;;14.00;9.55;;;16.30;99.90;;;;;;5033224;28;20170;-77
2022/06/06 06:55:10;;;;;;;14.43;10.18;;;16.30;99.90;;;;;;5036303;28;20029;-77
2022/06/06 06:58:12;;;;;;;15.23;9.93;;;16.20;99.90;;;;;;5036875;28;20025;-77
2022/06/06 07:01:01;;;;;;;14.35;7.80;;;16.40;99.90;;;;;;5036309;28;20032;-77
2022/06/06 07:09:48;;;;;;;10.80;6.45;;;16.50;99.50;;;;;;5036487;28;20037;-77
2022/06/06 07:12:43;;;;;;;13.05;6.97;;;16.60;99.40;;;;;;5036532;28;20030;-77
2022/06/06 07:15:16;;;;;;;7.45;5.40;;;16.60;98.90;;;;;;5036063;28;20033;-77
2022/06/06 07:17:47;;;;;;;9.10;5.70;;;16.60;98.90;;;;;;5036495;28;20052;-77
2022/06/06 07:20:15;;;;;;;13.40;6.67;;;16.60;98.80;;;;;;5036078;28;20033;-77
2022/06/06 07:22:59;;;;;;;11.20;7.10;;;16.60;98.40;;;;;;5035838;28;20410;-78
2022/06/06 07:25:26;;;;;;;13.50;7.97;;;16.60;98.50;;;;;;5036096;28;20036;-78
2022/06/06 07:27:53;;;;;;;13.43;7.80;;;16.60;98.70;;;;;;5035955;28;20037;-77
2022/06/06 07:30:21;;;;;;;13.15;8.68;;;16.50;99.10;;;;;;5036187;28;20017;-77
2022/06/06 07:33:08;;;;;;;10.70;7.63;;;16.60;99.00;;;;;;5035801;28;20481;-77
2022/06/06 07:35:52;;;;;;;9.77;6.95;;;16.60;98.90;;;;;;5035548;28;20049;-77
2022/06/06 07:38:40;;;;;;;10.30;6.22;;;16.70;98.80;;;;;;5036133;28;20523;-77
2022/06/06 07:41:26;;;;;;;8.75;6.60;;;16.80;98.00;;;;;;5007498;28;20037;-77
2022/06/06 07:44:14;;;;;;;8.43;5.43;;;16.80;97.60;;;;;;5035677;28;20032;-77
2022/06/06 07:47:06;;;;;;;8.02;5.30;;;16.80;97.20;;;;;;5036074;28;20097;-77
2022/06/06 07:49:55;;;;;;;6.80;4.15;;;16.70;97.30;;;;;;5035937;28;20032;-77
2022/06/06 07:52:48;;;;;;;7.70;4.35;;;16.80;97.20;;;;;;5035371;28;20026;-77
2022/06/06 07:55:32;;;;;;;5.72;4.00;;;16.90;96.70;;;;;;5036001;28;20068;-77
2022/06/06 07:57:57;;;;;;;5.45;3.10;;;17.00;96.70;;;;;;5035553;28;20021;-77
2022/06/06 08:00:28;;;;;;;4.40;3.25;;;17.10;96.20;;;;;;5035457;28;20029;-77
2022/06/06 08:03:06;;;;;;;4.22;2.22;;;17.10;95.70;;;;;;5035235;28;20040;-77
2022/06/06 08:05:50;;;;;;;4.53;2.58;;;17.20;95.50;;;;;;5034611;28;20045;-77
2022/06/06 08:08:45;;;;;;;8.40;2.20;;;17.30;94.80;;;;;;5035416;28;20357;-77
2022/06/06 08:11:39;;;;;;;6.60;2.10;;;17.30;95.00;;;;;;5034983;28;20029;-77
2022/06/06 08:14:20;;;;;;;4.35;1.23;;;17.30;94.70;;;;;;5035337;28;20056;-77
2022/06/06 08:17:00;;;;;;;4.30;1.08;;;17.40;94.10;;;;;;5035261;28;20112;-77
2022/06/06 08:19:47;;;;;;;2.58;0.80;;;17.40;93.70;;;;;;5035024;28;20029;-78
2022/06/06 08:22:13;;;;;;;3.70;0.80;;;17.50;93.10;;;;;;5035000;28;20025;-78
2022/06/06 08:24:47;;;;;;;4.82;1.20;;;17.50;92.50;;;;;;5035109;28;20113;-77
2022/06/06 08:27:15;;;;;;;2.97;1.30;;;17.40;92.80;;;;;;5035200;28;20100;-78
2022/06/06 08:29:44;;;;;;;6.18;0.90;;;17.40;93.30;;;;;;5035092;28;20064;-77
2022/06/06 08:32:10;;;;;;;3.33;0.90;;;17.20;92.90;;;;;;5034888;28;20470;-77
2022/06/06 08:34:37;;;;;;;3.03;0.93;;;17.20;93.30;;;;;;5034323;28;20041;-77
2022/06/06 08:37:41;;;;;;;2.17;1.02;;;17.20;93.90;;;;;;5034577;28;20104;-78
2022/06/06 08:40:34;;;;;;;5.60;1.52;;;17.20;93.50;;;;;;5034674;28;20109;-76
2022/06/06 08:43:00;;;;;;;4.07;1.00;;;17.10;93.50;;;;;;5034698;28;20025;-77
2022/06/06 08:45:52;;;;;;;6.13;0.98;;;16.90;93.30;;;;;;5034548;28;20025;-77
2022/06/06 08:48:38;;;;;;;3.15;0.80;;;16.80;93.60;;;;;;5034361;28;20373;-77
2022/06/06 08:51:22;;;;;;;3.60;1.30;;;17.00;94.40;;;;;;5034612;28;20021;-76
2022/06/06 08:54:04;;;;;;;4.82;1.50;;;17.20;93.90;;;;;;5034108;28;20029;-76
2022/06/06 08:56:48;;;;;;;3.60;0.93;;;17.20;93.90;;;;;;5034425;28;20033;-77
2022/06/06 08:59:54;;;;;;;3.70;1.00;;;17.20;94.00;;;;;;5034239;28;20022;-77
2022/06/06 09:02:57;;;;;;;2.58;0.80;;;17.30;93.30;;;;;;5034199;28;20453;-77
2022/06/06 09:05:35;;;;;;;2.83;0.57;;;17.40;93.60;;;;;;5033359;28;20501;-77
2022/06/06 09:08:54;;;;;;;2.08;0.50;;;17.50;93.00;;;;;;5034396;28;20034;-77
2022/06/06 09:11:38;;;;;;;4.90;0.80;;;17.80;92.40;;;;;;5022588;28;20037;-77
2022/06/06 09:14:33;;;;;;;2.15;0.50;;;18.00;91.60;;;;;;5033870;28;20038;-77
2022/06/06 09:17:15;;;;;;;2.10;0.75;;;18.00;91.40;;;;;;5033065;28;20033;-77
2022/06/06 09:20:18;;;;;;;2.83;0.60;;;18.20;91.90;;;;;;5034020;28;20021;-77
2022/06/06 09:22:52;;;;;;;6.70;1.13;;;18.50;90.90;;;;;;5034211;28;20029;-77
2022/06/06 09:25:36;;;;;;;4.35;0.73;;;18.60;90.80;;;;;;5033843;28;20021;-77
2022/06/06 09:28:11;;;;;;;1.75;0.43;;;18.60;90.70;;;;;;5033574;28;20108;-77
2022/06/06 09:30:40;;;;;;;2.28;0.40;;;18.80;90.50;;;;;;5033725;28;20354;-77
2022/06/06 09:33:23;;;;;;;4.28;0.70;;;18.90;90.00;;;;;;5033884;28;20056;-77
2022/06/06 09:36:26;;;;;;;2.00;0.32;;;19.00;89.30;;;;;;5033974;28;20029;-77
2022/06/06 09:39:15;;;;;;;2.45;0.35;;;19.20;87.30;;;;;;5033430;28;20476;-77
2022/06/06 09:42:00;;;;;;;3.30;0.30;;;19.30;86.80;;;;;;5033698;28;20026;-77
2022/06/06 09:44:48;;;;;;;3.22;0.30;;;19.40;87.10;;;;;;5033521;28;20052;-77
2022/06/06 09:47:31;;;;;;;2.05;0.30;;;19.50;86.80;;;;;;5033447;28;20504;-77
2022/06/06 09:50:33;;;;;;;2.50;0.47;;;19.60;87.40;;;;;;5033623;28;20029;-77
2022/06/06 09:53:38;;;;;;;3.65;0.50;;;19.60;85.60;;;;;;5033712;28;20025;-77
2022/06/06 09:59:32;;;;;;;1.77;0.60;;;19.60;85.80;;;;;;5033383;28;20559;-77
2022/06/06 10:02:23;;;;;;;3.50;1.23;;;19.50;85.10;;;;;;5033153;28;20022;-77
2022/06/06 10:04:48;;;;;;;4.60;0.70;;;19.40;85.80;;;;;;5033197;28;20068;-77
2022/06/06 10:07:51;;;;;;;1.85;0.47;;;19.20;85.10;;;;;;5033092;28;20472;-77
2022/06/06 10:10:44;;;;;;;3.30;0.57;;;19.20;86.70;;;;;;5033440;28;20028;-78
2022/06/06 10:13:18;;;;;;;;;;;19.10;85.70;;;;;;5033787;28;20469;-78
2022/06/06 10:16:18;;;;;;;3.80;0.63;;;19.20;86.80;;;;;;5033192;28;20405;-78
2022/06/06 10:18:56;;;;;;;3.30;0.60;;;19.20;86.60;;;;;;5033331;28;20484;-78
2022/06/06 10:21:40;;;;;;;2.60;0.50;;;19.10;85.10;;;;;;5032842;28;20025;-78
2022/06/06 10:24:42;;;;;;;1.77;0.55;;;19.00;86.50;;;;;;5033274;28;20029;-78
2022/06/06 10:27:20;;;;;;;2.50;0.75;;;18.90;86.60;;;;;;5033173;28;20029;-78
2022/06/06 10:32:58;;;;;;;2.55;0.60;;;18.60;87.10;;;;;;5037028;28;20504;-78
2022/06/06 10:35:26;;;;;;;2.20;0.50;;;18.50;87.60;;;;;;5036716;28;20091;-78
2022/06/06 10:38:10;;;;;;;2.45;0.70;;;18.50;87.50;;;;;;5037095;28;20021;-78
2022/06/06 10:40:39;;;;;;;2.58;0.55;;;18.40;87.90;;;;;;5036790;28;20488;-78
2022/06/06 10:43:31;;;;;;;2.13;0.50;;;18.30;88.10;;;;;;5036679;28;20473;-78
2022/06/06 10:46:03;;;;;;;1.83;0.60;;;18.30;88.10;;;;;;5037076;28;20104;-77
2022/06/06 10:48:38;;;;;;;2.42;0.68;;;18.30;88.60;;;;;;5036457;28;20033;-78
2022/06/06 10:54:22;;;;;;;4.25;1.08;;;18.50;87.70;;;;;;5036534;28;20040;-77
2022/06/06 10:57:25;;;;;;;2.38;0.80;;;18.50;87.00;;;;;;5036668;28;20439;-77
2022/06/06 10:59:59;;;;;;;1.23;0.60;;;18.50;88.30;;;;;;5036738;28;20029;-76
2022/06/06 11:02:49;;;;;;;1.58;0.63;;;18.50;89.10;;;;;;5036365;28;20025;-77
2022/06/06 11:05:18;;;;;;;3.28;0.60;;;18.50;88.80;;;;;;5036262;28;20049;-77
2022/06/06 11:07:44;;;;;;;1.42;0.82;;;18.40;87.70;;;;;;5036507;28;20109;-77
2022/06/06 11:10:47;;;;;;;3.17;0.82;;;18.40;87.10;;;;;;5036253;28;20022;-77
2022/06/06 11:13:32;;;;;;;2.33;1.15;;;18.30;88.80;;;;;;5036319;28;20032;-77
2022/06/06 11:16:38;;;;;;;4.88;1.30;;;18.20;90.40;;;;;;5036494;28;20187;-77
2022/06/06 11:19:33;;;;;;;5.85;1.42;;;18.20;90.20;;;;;;5002532;28;20044;-77
2022/06/06 11:22:18;;;;;;;1.33;0.90;;;18.30;90.60;;;;;;5036178;28;20033;-77
2022/06/06 11:25:00;;;;;;;4.35;0.80;;;18.60;90.20;;;;;;5036094;28;20049;-78
2022/06/06 11:27:35;;;;;;;2.17;0.70;;;19.00;90.10;;;;;;5036095;28;20029;-78
2022/06/06 11:30:19;;;;;;;2.88;0.60;;;19.30;89.30;;;;;;5035918;28;20029;-78
2022/06/06 11:32:59;;;;;;;2.63;0.65;;;19.60;87.30;;;;;;5035924;28;20039;-78
2022/06/06 11:35:36;;;;;;;6.05;0.80;;;19.80;87.60;;;;;;5035710;28;20515;-78
2022/06/06 11:38:24;;;;;;;2.15;1.20;;;20.00;87.40;;;;;;5036121;28;20393;-77
2022/06/06 11:40:49;;;;;;;2.70;0.40;;;19.90;84.40;;;;;;5034808;28;20017;-77
2022/06/06 11:43:45;;;;;;;2.88;0.63;;;19.70;83.30;;;;;;5035657;28;20060;-77
2022/06/06 11:46:14;;;;;;;6.05;0.50;;;19.60;84.30;;;;;;5035579;28;20061;-77
2022/06/06 11:49:01;;;;;;;1.65;0.50;;;19.50;84.20;;;;;;5035593;28;20025;-78
2022/06/06 11:51:39;;;;;;;2.70;0.35;;;19.50;83.80;;;;;;5035537;28;20026;-77
2022/06/06 11:54:46;;;;;;;1.70;0.50;;;19.40;83.90;;;;;;5035083;28;20072;-78
2022/06/06 11:57:37;;;;;;;3.33;0.40;;;19.40;84.70;;;;;;5035704;28;20036;-77
2022/06/06 12:00:07;;;;;;;1.63;0.60;;;19.30;85.50;;;;;;5035355;28;20029;-77
2022/06/06 12:02:50;;;;;;;1.63;0.45;;;19.30;86.20;;;;;;5035123;28;20030;-77
2022/06/06 12:05:34;;;;;;;4.70;0.70;;;19.10;86.90;;;;;;5035155;28;20064;-77
2022/06/06 12:08:19;;;;;;;3.42;0.73;;;19.00;89.00;;;;;;5035238;28;20108;-78
2022/06/06 12:10:47;;;;;;;2.42;0.60;;;18.90;90.10;;;;;;5035423;28;20396;-78
2022/06/06 12:13:16;;;;;;;1.55;0.40;;;18.80;90.60;;;;;;5034756;28;20064;-78
2022/06/06 12:15:54;;;;;;;2.10;0.55;;;18.70;90.90;;;;;;5035044;28;20041;-77
2022/06/06 12:18:30;;;;;;;5.13;0.75;;;18.60;91.00;;;;;;5034691;28;20105;-78
2022/06/06 12:21:21;;;;;;;3.17;0.73;;;18.60;91.30;;;;;;5034419;28;20481;-77
2022/06/06 12:23:53;;;;;;;2.38;0.43;;;18.50;90.30;;;;;;5034875;28;20037;-77
2022/06/06 12:26:33;;;;;;;2.10;0.40;;;18.50;90.20;;;;;;5035170;28;20061;-77
2022/06/06 12:29:30;;;;;;;1.67;0.43;;;18.60;90.40;;;;;;5034827;28;20025;-78
2022/06/06 12:32:14;;;;;;;5.20;0.70;;;18.70;90.60;;;;;;5023392;28;20034;-76
2022/06/06 12:34:49;;;;;;;3.33;0.65;;;18.70;89.70;;;;;;5034932;28;20040;-76
2022/06/06 12:37:20;;;;;;;3.45;1.00;;;18.60;90.70;;;;;;5034917;28;20034;-77
2022/06/06 12:40:15;;;;;;;1.83;0.80;;;18.50;91.70;;;;;;5034849;28;20374;-77
2022/06/06 12:42:43;;;;;;;3.33;0.73;;;18.40;93.00;;;;;;5021419;28;20050;-77
2022/06/06 12:45:24;;;;;;;3.75;0.80;;;18.20;92.90;;;;;;5034801;28;20025;-77
2022/06/06 12:48:01;;;;;;;2.50;0.98;;;18.00;93.00;;;;;;5034250;28;20079;-77
2022/06/06 12:50:46;;;;;;;3.30;0.88;;;17.80;93.80;;;;;;5034353;28;20025;-77
2022/06/06 12:53:32;;;;;;;2.03;0.68;;;17.60;95.30;;;;;;5034492;28;20083;-77
2022/06/06 12:56:27;;;;;;;2.50;1.17;;;17.50;96.10;;;;;;5034586;28;20049;-77
2022/06/06 12:59:30;;;;;;;2.08;0.80;;;17.50;96.90;;;;;;5034357;28;20021;-76
2022/06/06 13:02:18;;;;;;;2.47;0.65;;;17.40;96.90;;;;;;5034730;28;20500;-77
2022/06/06 13:04:53;;;;;;;1.80;0.70;;;17.30;97.00;;;;;;5034201;28;20114;-77
2022/06/06 13:07:48;;;;;;;2.13;0.63;;;17.40;97.20;;;;;;5033992;28;20049;-77
2022/06/06 13:10:29;;;;;;;2.22;0.68;;;17.30;96.70;;;;;;5034364;28;20101;-77
2022/06/06 13:13:20;;;;;;;1.92;0.80;;;17.40;96.80;;;;;;5033937;28;20033;-77
2022/06/06 13:15:48;;;;;;;1.77;0.80;;;17.40;96.80;;;;;;5033810;28;20044;-77
2022/06/06 13:18:52;;;;;;;5.00;1.48;;;17.40;96.80;;;;;;5034109;28;20168;-77
2022/06/06 13:21:45;;;;;;;2.40;0.77;;;17.40;96.30;;;;;;5033705;28;20028;-78
2022/06/06 13:24:14;;;;;;;;;;;17.40;95.90;;;;;;5034195;28;20187;-77
2022/06/06 13:26:53;;;;;;;2.67;0.80;;;17.30;95.90;;;;;;5034184;28;19912;-77
2022/06/06 13:29:34;;;;;;;3.53;0.60;;;17.40;95.80;;;;;;5034122;28;20048;-77
2022/06/06 13:32:13;;;;;;;1.25;0.50;;;17.40;95.80;;;;;;5033908;28;20028;-77
2022/06/06 13:35:07;;;;;;;4.05;0.95;;;17.50;95.20;;;;;;5033277;28;20137;-77
2022/06/06 13:37:58;;;;;;;2.58;0.70;;;17.60;94.90;;;;;;5031929;28;20037;-77
2022/06/06 13:40:45;;;;;;;3.65;0.40;;;17.70;94.30;;;;;;5033468;28;20488;-77
2022/06/06 13:43:37;;;;;;;4.03;0.50;;;17.80;94.50;;;;;;5033577;28;20093;-76
2022/06/06 13:46:18;;;;;;;4.13;0.63;;;17.80;94.50;;;;;;5033329;28;20547;-77
2022/06/06 13:49:24;;;;;;;3.45;0.60;;;17.80;94.20;;;;;;5033549;28;20060;-77
2022/06/06 13:52:00;;;;;;;2.47;0.40;;;17.90;94.10;;;;;;5025442;28;20072;-77
2022/06/06 13:54:36;;;;;;;2.35;0.30;;;17.90;93.90;;;;;;5033197;28;20389;-77
2022/06/06 13:57:22;;;;;;;1.92;0.38;;;17.80;93.60;;;;;;5033437;28;20032;-77
2022/06/06 14:00:03;;;;;;;2.78;1.02;;;17.80;93.80;;;;;;5033454;28;20022;-77
2022/06/06 14:02:37;;;;;;;2.00;0.52;;;17.90;93.90;;;;;;5033523;28;20028;-77
2022/06/06 14:05:13;;;;;;;1.15;0.30;;;17.90;94.00;;;;;;5033081;28;20152;-77
2022/06/06 14:08:16;;;;;;;1.88;0.45;;;17.90;93.60;;;;;;5033352;28;20029;-78
2022/06/06 14:10:54;;;;;;;4.78;0.50;;;17.90;93.80;;;;;;4972156;28;20086;-78